createdAt,value
2023-03-17T00:01:41.600Z,60.1
2023-03-17T00:06:41.753Z,60.2
2023-03-17T00:11:41.603Z,60.2
2023-03-17T00:16:41.577Z,60.3
2023-03-17T00:21:41.685Z,60.4
2023-03-17T00:26:41.596Z,60.5
2023-03-17T00:31:41.648Z,60.6
2023-03-17T00:36:41.662Z,60.7
2023-03-17T00:41:41.685Z,60.7
2023-03-17T00:46:43.098Z,60.7
2023-03-17T00:51:42.326Z,60.8
2023-03-17T00:56:42.192Z,60.9
2023-03-17T01:01:42.329Z,61.0
2023-03-17T01:06:41.525Z,61.1
2023-03-17T01:11:41.511Z,61.2
2023-03-17T01:16:41.522Z,61.3
2023-03-17T01:21:42.143Z,61.4
2023-03-17T01:26:41.456Z,61.5
2023-03-17T01:31:41.570Z,61.6
2023-03-17T01:36:41.465Z,61.7
2023-03-17T01:41:41.460Z,61.8
2023-03-17T01:46:41.531Z,61.8
2023-03-17T01:51:41.519Z,61.9
2023-03-17T01:56:42.105Z,62.0
2023-03-17T02:01:41.490Z,62.0
2023-03-17T02:06:54.992Z,62.1
2023-03-17T02:11:42.100Z,62.2
2023-03-17T02:16:42.514Z,62.3
2023-03-17T02:21:42.159Z,62.4
2023-03-17T02:26:42.423Z,62.5
2023-03-17T02:31:42.129Z,62.6
2023-03-17T02:36:42.165Z,62.6
2023-03-17T02:41:42.280Z,62.7
2023-03-17T02:46:42.184Z,62.8
2023-03-17T02:51:42.020Z,62.9
2023-03-17T02:56:42.056Z,63.0
2023-03-17T03:01:42.148Z,63.1
2023-03-17T03:06:42.050Z,63.2
2023-03-17T03:11:41.982Z,63.3
2023-03-17T03:16:42.095Z,63.3
2023-03-17T03:21:42.080Z,63.3
2023-03-17T03:26:42.030Z,63.4
2023-03-17T03:31:41.243Z,63.5
2023-03-17T03:36:41.296Z,63.8
2023-03-17T03:41:41.231Z,63.7
2023-03-17T03:46:41.274Z,63.7
2023-03-17T03:51:41.234Z,63.8
2023-03-17T03:56:41.953Z,63.8
2023-03-17T04:01:41.204Z,63.8
2023-03-17T04:06:41.123Z,64.0
2023-03-17T04:11:41.161Z,64.1
2023-03-17T04:16:43.405Z,64.1
2023-03-17T04:21:41.176Z,64.1
2023-03-17T04:31:41.336Z,64.1
2023-03-17T04:36:41.163Z,64.4
2023-03-17T04:41:41.104Z,64.4
2023-03-17T04:46:41.225Z,64.4
2023-03-17T04:51:41.133Z,64.4
2023-03-17T04:56:41.124Z,64.5
2023-03-17T05:01:41.826Z,64.6
2023-03-17T05:06:41.040Z,64.7
2023-03-17T05:11:41.028Z,64.8
2023-03-17T05:16:41.279Z,64.8
2023-03-17T05:21:41.041Z,65.0
2023-03-17T05:26:41.026Z,64.9
2023-03-17T05:31:41.242Z,65.0
2023-03-17T05:36:41.039Z,65.0
2023-03-17T05:41:40.937Z,65.1
2023-03-17T05:46:41.199Z,65.2
2023-03-17T05:51:40.947Z,65.3
2023-03-17T05:56:40.989Z,65.4
2023-03-17T06:01:40.995Z,65.4
2023-03-17T06:06:40.913Z,65.5
2023-03-17T06:11:41.130Z,65.5
2023-03-17T06:16:40.962Z,65.6
2023-03-17T06:21:40.954Z,65.8
2023-03-17T06:26:41.104Z,65.7
2023-03-17T06:31:41.062Z,65.8
2023-03-17T06:36:40.883Z,65.8
2023-03-17T06:41:41.037Z,65.8
2023-03-17T06:46:40.979Z,65.9
2023-03-17T06:51:40.836Z,65.9
2023-03-17T06:56:40.988Z,66.0
2023-03-17T07:01:41.001Z,66.0
2023-03-17T07:06:51.493Z,66.1
2023-03-17T07:11:44.960Z,66.1
2023-03-17T07:16:40.935Z,66.0
2023-03-17T07:21:40.831Z,66.0
2023-03-17T07:26:40.906Z,65.7
2023-03-17T07:31:41.459Z,65.6
2023-03-17T07:36:41.120Z,65.5
2023-03-17T07:41:40.864Z,65.4
2023-03-17T07:46:40.891Z,65.1
2023-03-17T07:51:41.173Z,64.9
2023-03-17T07:56:40.812Z,64.7
2023-03-17T08:01:40.923Z,64.6
2023-03-17T08:06:40.982Z,64.3
2023-03-17T08:11:40.908Z,64.2
2023-03-17T08:16:40.881Z,63.9
2023-03-17T08:21:40.789Z,63.3
2023-03-17T08:26:40.751Z,63.1
2023-03-17T08:31:40.897Z,62.9
2023-03-17T08:36:40.854Z,62.2
2023-03-17T08:41:40.654Z,62.0
2023-03-17T08:46:40.705Z,61.5
2023-03-17T08:51:41.110Z,61.1
2023-03-17T08:56:40.842Z,60.5
2023-03-17T09:01:40.752Z,60.3
2023-03-17T09:06:48.918Z,60.0
2023-03-17T09:11:40.687Z,59.7
2023-03-17T09:16:40.664Z,59.7
2023-03-17T09:21:40.893Z,59.6
2023-03-17T09:26:40.592Z,58.7
2023-03-17T09:31:40.730Z,58.6
2023-03-17T09:36:40.804Z,57.8
2023-03-17T09:41:40.610Z,57.3
2023-03-17T09:46:40.527Z,57.3
2023-03-17T09:51:40.798Z,57.2
2023-03-17T09:56:40.622Z,56.5
2023-03-17T10:01:40.671Z,56.1
2023-03-17T10:06:40.774Z,55.8
2023-03-17T10:11:40.549Z,55.5
2023-03-17T10:16:40.569Z,55.0
2023-03-17T10:21:40.803Z,55.1
2023-03-17T10:26:40.588Z,54.6
2023-03-17T10:31:40.702Z,54.2
2023-03-17T10:36:40.427Z,53.9
2023-03-17T10:41:40.538Z,53.7
2023-03-17T10:46:40.443Z,53.7
2023-03-17T10:51:40.686Z,53.4
2023-03-17T10:56:40.408Z,52.2
2023-03-17T11:01:40.432Z,51.7
2023-03-17T11:06:40.643Z,52.1
2023-03-17T11:11:40.505Z,51.3
2023-03-17T11:16:40.536Z,50.6
2023-03-17T11:21:40.586Z,50.3
2023-03-17T11:26:40.438Z,50.2
2023-03-17T11:31:40.649Z,49.5
2023-03-17T11:36:40.637Z,48.9
2023-03-17T11:41:40.430Z,49.0
2023-03-17T11:46:40.439Z,47.8
2023-03-17T11:51:40.769Z,47.3
2023-03-17T11:56:40.422Z,47.6
2023-03-17T12:01:40.505Z,47.6
2023-03-17T12:06:40.544Z,46.5
2023-03-17T12:11:40.390Z,45.6
2023-03-17T12:16:40.399Z,45.6
2023-03-17T12:21:40.527Z,45.6
2023-03-17T12:26:40.361Z,45.0
2023-03-17T12:31:40.261Z,44.8
2023-03-17T12:36:40.284Z,44.4
2023-03-17T12:41:40.561Z,44.8
2023-03-17T12:46:40.496Z,44.1
2023-03-17T12:51:40.251Z,43.8
2023-03-17T12:56:40.344Z,43.5
2023-03-17T13:01:40.545Z,43.5
2023-03-17T13:06:40.940Z,43.0
2023-03-17T13:11:40.282Z,42.9
2023-03-17T13:16:40.352Z,43.0
2023-03-17T13:21:40.284Z,42.6
2023-03-17T13:26:40.277Z,42.3
2023-03-17T13:31:40.731Z,42.8
2023-03-17T13:36:40.272Z,42.7
2023-03-17T13:41:40.320Z,42.4
2023-03-17T13:46:40.579Z,41.7
2023-03-17T13:51:43.945Z,42.0
2023-03-17T13:56:40.139Z,41.8
2023-03-17T14:01:43.130Z,42.1
2023-03-17T14:06:40.229Z,41.5
2023-03-17T14:11:41.766Z,41.1
2023-03-17T14:16:40.674Z,41.3
2023-03-17T14:21:40.196Z,41.3
2023-03-17T14:26:40.388Z,41.4
2023-03-17T14:31:41.218Z,40.8
2023-03-17T14:36:40.169Z,40.6
2023-03-17T14:41:40.264Z,40.6
2023-03-17T14:46:40.273Z,40.8
2023-03-17T14:51:40.133Z,40.8
2023-03-17T14:56:40.107Z,40.4
2023-03-17T15:01:40.441Z,40.6
2023-03-17T15:06:40.067Z,40.7
2023-03-17T15:11:40.188Z,40.4
2023-03-17T15:16:40.321Z,40.5
2023-03-17T15:21:40.078Z,40.4
2023-03-17T15:26:40.097Z,40.1
2023-03-17T15:31:40.620Z,40.4
2023-03-17T15:36:40.125Z,40.3
2023-03-17T15:41:40.028Z,40.4
2023-03-17T15:46:40.216Z,40.4
2023-03-17T15:51:40.092Z,40.5
2023-03-17T15:56:40.000Z,40.4
2023-03-17T16:01:40.278Z,40.3
2023-03-17T16:06:39.978Z,40.4
2023-03-17T16:11:40.546Z,40.4
2023-03-17T16:16:40.193Z,40.4
2023-03-17T16:26:39.993Z,40.6
2023-03-17T16:31:39.945Z,40.9
2023-03-17T16:36:40.460Z,41.1
2023-03-17T16:41:40.781Z,41.3
2023-03-17T16:46:40.726Z,41.4
2023-03-17T16:51:40.683Z,41.5
2023-03-17T16:56:40.835Z,41.6
2023-03-17T17:01:40.670Z,41.7
2023-03-17T17:06:40.505Z,41.8
2023-03-17T17:11:40.772Z,41.9
2023-03-17T17:16:40.805Z,42.0
2023-03-17T17:21:40.720Z,42.1
2023-03-17T17:26:40.530Z,42.1
2023-03-17T17:31:40.611Z,42.2
2023-03-17T17:36:40.556Z,42.3
2023-03-17T17:41:39.831Z,42.4
2023-03-17T17:46:39.851Z,42.4
2023-03-17T17:51:40.146Z,42.5
2023-03-17T17:56:39.970Z,42.6
2023-03-17T18:01:39.968Z,42.7
2023-03-17T18:06:39.740Z,42.9
2023-03-17T18:11:40.590Z,43.0
2023-03-17T18:16:40.644Z,43.2
2023-03-17T18:21:40.877Z,43.3
2023-03-17T18:26:39.673Z,43.5
2023-03-17T18:31:39.891Z,43.7
2023-03-17T18:36:40.539Z,43.8
2023-03-17T18:41:39.750Z,43.9
2023-03-17T18:46:39.660Z,44.1
2023-03-17T18:51:39.894Z,44.2
2023-03-17T18:56:39.904Z,44.3
2023-03-17T19:01:39.744Z,44.3
2023-03-17T19:06:40.407Z,44.5
2023-03-17T19:11:47.166Z,44.5
2023-03-17T19:16:40.387Z,44.6
2023-03-17T19:21:39.641Z,44.7
2023-03-17T19:26:39.702Z,44.8
2023-03-17T19:31:40.445Z,44.9
2023-03-17T19:36:39.723Z,44.9
2023-03-17T19:41:39.836Z,45.0
2023-03-17T19:46:41.783Z,45.1
2023-03-17T19:51:39.935Z,45.2
2023-03-17T19:56:39.879Z,45.3
2023-03-17T20:01:39.812Z,45.4
2023-03-17T20:06:39.890Z,45.5
2023-03-17T20:11:39.509Z,45.6
2023-03-17T20:16:41.434Z,45.7
2023-03-17T20:21:39.699Z,45.7
2023-03-17T20:26:39.568Z,45.8
2023-03-17T20:31:39.593Z,45.9
2023-03-17T20:36:39.621Z,46.0
2023-03-17T20:41:39.553Z,46.1
2023-03-17T20:46:39.697Z,46.2
2023-03-17T20:51:39.466Z,46.3
2023-03-17T20:56:39.541Z,46.4
2023-03-17T21:01:39.638Z,46.5
2023-03-17T21:06:39.450Z,46.5
2023-03-17T21:11:39.431Z,46.6
2023-03-17T21:16:39.417Z,46.7
2023-03-17T21:21:39.499Z,46.8
2023-03-17T21:26:40.101Z,47.0
2023-03-17T21:31:40.108Z,47.0
2023-03-17T21:36:39.391Z,47.1
2023-03-17T21:41:39.365Z,47.2
2023-03-17T21:46:39.579Z,47.3
2023-03-17T21:51:39.456Z,47.4
2023-03-17T21:56:39.358Z,47.5
2023-03-17T22:01:39.761Z,47.6
2023-03-17T22:06:39.392Z,47.7
2023-03-17T22:11:39.408Z,47.8
2023-03-17T22:16:39.520Z,47.9
2023-03-17T22:21:39.348Z,48.0
2023-03-17T22:26:39.314Z,48.0
2023-03-17T22:31:39.531Z,48.1
2023-03-17T22:36:39.345Z,48.2
2023-03-17T22:41:39.319Z,48.3
2023-03-17T22:46:39.422Z,48.4
2023-03-17T22:51:39.363Z,48.5
2023-03-17T22:56:39.307Z,48.6
2023-03-17T23:01:39.246Z,48.8
2023-03-17T23:06:39.247Z,48.9
2023-03-17T23:11:39.264Z,48.9
2023-03-17T23:16:39.449Z,49.1
2023-03-17T23:21:39.249Z,49.2
2023-03-17T23:26:39.225Z,49.3
2023-03-17T23:31:39.325Z,49.4
2023-03-17T23:36:39.436Z,49.6
2023-03-17T23:41:39.337Z,49.7
2023-03-17T23:46:39.260Z,49.8
2023-03-17T23:51:39.393Z,49.9
2023-03-17T23:56:39.176Z,50.0
